createdAt,value
2018-07-07T04:11:22.299Z,1716
2018-07-07T04:11:47.793Z,1732
2018-07-07T04:12:13.283Z,1748
2018-07-07T04:12:38.765Z,1764
2018-07-07T04:13:04.278Z,1780
2018-07-07T04:13:29.754Z,1804
2018-07-07T04:13:55.263Z,1824
2018-07-07T04:14:20.759Z,1836
2018-07-07T04:14:46.251Z,1848
2018-07-07T04:15:11.743Z,1860
2018-07-07T04:15:37.231Z,1876
2018-07-07T04:16:02.720Z,1892
2018-07-07T04:16:28.189Z,1912
2018-07-07T04:16:53.703Z,1932
2018-07-07T04:17:19.240Z,1956
2018-07-07T04:17:44.745Z,1980
2018-07-07T04:18:10.233Z,2000
2018-07-07T04:18:35.728Z,2012
2018-07-07T04:19:01.213Z,2020
2018-07-07T04:19:26.707Z,2024
2018-07-07T04:19:52.192Z,2032
2018-07-07T04:20:17.687Z,2048
2018-07-07T04:20:43.168Z,2068
2018-07-07T04:21:08.668Z,2092
2018-07-07T04:21:34.157Z,2104
2018-07-07T04:21:59.663Z,2124
2018-07-07T04:22:25.135Z,2136
2018-07-07T04:22:50.641Z,2156
2018-07-07T04:23:16.091Z,2180
2018-07-07T04:23:41.559Z,2208
2018-07-07T04:24:07.069Z,2236
2018-07-07T04:24:32.541Z,2256
2018-07-07T04:24:58.036Z,2276
2018-07-07T04:25:23.507Z,2296
2018-07-07T04:25:49.001Z,2312
2018-07-07T04:26:14.467Z,2328
2018-07-07T04:26:39.948Z,2344
2018-07-07T04:27:05.467Z,2364
2018-07-07T04:27:30.962Z,2388
2018-07-07T04:27:56.433Z,2408
2018-07-07T04:28:21.915Z,2436
2018-07-07T04:28:47.423Z,2464
2018-07-07T04:29:12.920Z,2492
2018-07-07T04:29:38.501Z,2532
2018-07-07T04:30:03.995Z,2572
2018-07-07T04:30:29.523Z,2612
2018-07-07T04:30:54.991Z,2660
2018-07-07T04:31:20.457Z,2712
2018-07-07T04:31:45.988Z,2760
2018-07-07T04:32:11.514Z,2808
2018-07-07T04:32:37.001Z,2856
2018-07-07T04:33:02.492Z,2900
2018-07-07T04:33:27.949Z,2940
2018-07-07T04:34:31.558Z,3032
2018-07-07T04:34:57.065Z,3064
2018-07-07T04:35:22.593Z,3096
2018-07-07T04:35:48.087Z,3144
2018-07-07T04:36:13.560Z,3188
2018-07-07T04:36:39.076Z,3236
2018-07-07T04:37:04.529Z,3288
2018-07-07T04:37:30.036Z,3328
2018-07-07T04:37:55.523Z,3364
2018-07-07T04:38:21.102Z,3392
2018-07-07T04:38:46.601Z,3420
2018-07-07T04:39:12.081Z,3456
2018-07-07T04:39:37.596Z,3508
2018-07-07T04:40:03.090Z,3560
2018-07-07T04:40:28.573Z,3624
2018-07-07T04:40:54.055Z,3688
2018-07-07T04:41:19.562Z,3736
2018-07-07T04:41:45.056Z,3784
2018-07-07T04:42:10.551Z,3816
2018-07-07T04:42:36.071Z,3836
2018-07-07T04:43:01.582Z,3856
2018-07-07T04:43:27.083Z,3864
2018-07-07T04:43:52.563Z,3888
2018-07-07T04:44:18.041Z,3908
2018-07-07T04:44:43.576Z,3944
2018-07-07T04:45:09.068Z,3968
2018-07-07T04:45:34.554Z,4000
2018-07-07T04:46:00.149Z,4024
2018-07-07T04:46:25.532Z,4036
2018-07-07T04:46:51.014Z,4032
2018-07-07T04:47:16.516Z,4024
2018-07-07T04:47:41.986Z,4004
2018-07-07T04:48:07.519Z,3976
2018-07-07T04:48:33.016Z,3976
2018-07-07T04:48:58.515Z,3992
2018-07-07T04:49:24.034Z,4004
2018-07-07T04:49:49.572Z,4028
2018-07-07T04:50:15.066Z,4056
2018-07-07T04:51:23.771Z,4112
2018-07-07T04:51:49.270Z,4136
2018-07-07T04:52:14.763Z,4148
2018-07-07T04:52:40.274Z,4168
2018-07-07T04:53:05.734Z,4196
2018-07-07T04:53:31.257Z,4216
2018-07-07T04:53:56.753Z,4244
2018-07-07T04:54:22.231Z,4264
2018-07-07T04:54:47.729Z,4276
2018-07-07T04:55:13.274Z,4304
2018-07-07T04:55:38.790Z,4324
2018-07-07T04:56:04.298Z,4356
2018-07-07T04:56:29.756Z,4376
2018-07-07T04:56:55.262Z,4388
2018-07-07T04:57:20.759Z,4400
2018-07-07T04:57:46.222Z,4412
2018-07-07T04:58:11.793Z,4412
2018-07-07T04:58:37.163Z,4436
2018-07-07T04:59:02.637Z,4448
2018-07-07T04:59:28.190Z,4468
2018-07-07T04:59:53.634Z,4480
2018-07-07T05:00:19.121Z,4508
2018-07-07T05:00:44.722Z,4536
2018-07-07T05:01:10.263Z,4564
2018-07-07T05:01:35.707Z,4604
2018-07-07T05:02:01.234Z,4644
2018-07-07T05:02:26.713Z,4676
2018-07-07T05:02:52.115Z,4704
2018-07-07T05:03:17.628Z,4728
2018-07-07T05:03:43.165Z,4748
2018-07-07T05:04:08.678Z,4760
2018-07-07T05:04:34.225Z,4756
2018-07-07T05:04:59.664Z,4752
2018-07-07T05:05:25.156Z,4756
2018-07-07T05:05:50.653Z,4756
2018-07-07T05:06:16.151Z,4764
2018-07-07T05:06:41.696Z,4780
2018-07-07T05:07:07.199Z,4792
2018-07-07T05:07:32.702Z,4808
2018-07-07T05:07:58.190Z,4816
2018-07-07T05:08:23.713Z,4844
2018-07-07T05:08:49.243Z,4848
2018-07-07T05:09:14.742Z,4868
2018-07-07T05:09:40.220Z,4856
2018-07-07T05:10:05.719Z,4864
2018-07-07T05:10:31.235Z,4868
2018-07-07T05:11:55.261Z,4868
2018-07-07T05:12:20.769Z,5028
2018-07-07T05:12:46.269Z,5024
2018-07-07T05:13:11.759Z,5040
2018-07-07T05:13:37.270Z,5040
2018-07-07T05:14:02.782Z,5056
2018-07-07T05:14:28.270Z,5068
2018-07-07T05:14:53.750Z,5080
2018-07-07T05:15:19.229Z,5100
2018-07-07T05:15:44.711Z,5124
2018-07-07T05:16:10.208Z,5144
2018-07-07T05:16:35.714Z,5168
2018-07-07T05:17:01.228Z,5200
2018-07-07T05:17:26.713Z,5228
2018-07-07T05:17:52.213Z,5264
2018-07-07T05:18:17.703Z,5288
2018-07-07T05:18:43.186Z,5308
2018-07-07T05:19:08.692Z,5320
2018-07-07T05:19:34.219Z,5316
2018-07-07T05:19:59.725Z,5320
2018-07-07T05:20:25.224Z,5328
2018-07-07T05:20:50.690Z,5324
2018-07-07T05:21:16.202Z,5324
2018-07-07T05:21:41.685Z,5332
2018-07-07T05:22:07.185Z,5332
2018-07-07T05:22:32.653Z,5356
2018-07-07T05:22:58.140Z,5368
2018-07-07T05:23:23.639Z,5384
2018-07-07T05:23:49.110Z,5392
2018-07-07T05:24:14.593Z,5420
2018-07-07T05:24:40.096Z,5440
2018-07-07T05:25:05.572Z,5456
2018-07-07T05:25:31.074Z,5472
2018-07-07T05:25:56.610Z,5464
2018-07-07T05:26:22.091Z,5460
2018-07-07T05:26:47.598Z,5464
2018-07-07T05:27:13.067Z,5472
2018-07-07T05:27:38.583Z,5468
2018-07-07T05:28:04.056Z,5476
2018-07-07T05:28:29.532Z,5484
2018-07-07T05:28:55.030Z,5468
2018-07-07T05:29:20.514Z,5488
2018-07-07T05:29:46.063Z,5488
2018-07-07T05:30:11.525Z,5508
2018-07-07T05:30:37.045Z,5512
2018-07-07T05:31:02.519Z,5512
2018-07-07T05:31:28.037Z,5532
2018-07-07T05:31:53.645Z,5524
2018-07-07T05:32:19.030Z,5544
2018-07-07T05:32:44.531Z,5560
2018-07-07T05:33:10.056Z,5580
2018-07-07T05:33:35.518Z,5616
2018-07-07T05:34:01.012Z,5656
2018-07-07T05:34:26.516Z,5664
2018-07-07T05:34:52.014Z,5692
2018-07-07T05:35:17.468Z,5720
2018-07-07T05:35:42.926Z,5748
2018-07-07T05:36:08.439Z,5772
2018-07-07T05:36:33.894Z,5760
2018-07-07T05:36:59.397Z,5784
2018-07-07T05:37:24.889Z,5804
2018-07-07T05:37:50.402Z,5828
2018-07-07T05:38:15.891Z,5828
2018-07-07T05:38:41.402Z,5856
2018-07-07T05:39:06.936Z,5908
2018-07-07T05:39:32.429Z,5928
2018-07-07T05:39:58.138Z,5944
2018-07-07T05:40:23.610Z,5960
2018-07-07T05:40:49.213Z,5976
2018-07-07T05:41:14.732Z,5980
2018-07-07T05:41:40.188Z,5988
2018-07-07T05:42:05.697Z,5972
2018-07-07T05:42:31.198Z,5976
2018-07-07T05:42:56.679Z,5972
2018-07-07T05:43:22.180Z,5996
2018-07-07T05:43:47.676Z,5988
2018-07-07T05:44:13.143Z,5972
2018-07-07T05:44:38.680Z,5976
2018-07-07T05:45:04.197Z,5976
2018-07-07T05:45:29.714Z,6004
2018-07-07T05:45:55.201Z,6008
2018-07-07T05:46:20.712Z,6024
2018-07-07T05:46:46.223Z,6048
2018-07-07T05:47:54.929Z,6104
2018-07-07T05:48:20.430Z,6100
2018-07-07T05:48:46.023Z,6120
2018-07-07T05:49:11.515Z,6152
2018-07-07T05:49:37.022Z,6184
2018-07-07T05:50:02.551Z,6212
2018-07-07T05:50:28.096Z,6232
2018-07-07T05:50:53.609Z,6260
2018-07-07T05:51:19.088Z,6168
2018-07-07T05:51:44.715Z,6312
2018-07-07T05:52:10.173Z,6364
2018-07-07T05:52:35.667Z,6428
2018-07-07T05:53:48.997Z,6552
2018-07-07T05:54:14.644Z,6584
2018-07-07T05:54:40.301Z,6608
2018-07-07T05:55:05.851Z,6676
2018-07-07T05:56:14.507Z,6904
2018-07-07T05:56:39.995Z,7000
2018-07-07T05:57:05.499Z,7216
2018-07-07T05:57:31.113Z,7472
2018-07-07T05:57:56.455Z,7752
2018-07-07T05:58:21.942Z,8032
2018-07-07T05:58:47.398Z,8332
2018-07-07T05:59:12.840Z,8484
2018-07-07T05:59:38.306Z,8628
2018-07-07T06:00:03.767Z,8612
2018-07-07T06:00:29.282Z,8636
2018-07-07T06:00:54.693Z,8588
2018-07-07T06:01:20.222Z,8684
2018-07-07T06:01:45.654Z,8772
2018-07-07T06:02:11.161Z,8804
2018-07-07T06:02:36.662Z,8876
2018-07-07T06:03:02.103Z,8988
2018-07-07T06:03:27.567Z,9084
2018-07-07T06:03:53.069Z,9136
2018-07-07T06:04:18.538Z,9180
2018-07-07T06:04:43.997Z,9196
2018-07-07T06:05:09.414Z,9292
2018-07-07T06:05:34.949Z,9448
2018-07-07T06:06:00.424Z,9556
2018-07-07T06:06:25.901Z,9700
2018-07-07T06:06:51.409Z,9760
2018-07-07T06:07:16.847Z,9904
2018-07-07T06:07:42.366Z,10032
2018-07-07T06:08:07.807Z,10136
2018-07-07T06:08:33.260Z,10212
2018-07-07T06:08:58.737Z,10348
2018-07-07T06:09:24.189Z,10464
2018-07-07T06:09:49.666Z,10720
2018-07-07T06:10:15.106Z,11004
2018-07-07T06:10:40.581Z,11468
2018-07-07T06:11:06.061Z,11884
2018-07-07T06:11:31.653Z,12256
2018-07-07T06:11:57.050Z,12716
2018-07-07T06:12:22.538Z,13148
2018-07-07T06:12:48.038Z,13388
2018-07-07T06:13:13.519Z,13488
2018-07-07T06:13:39.027Z,13772
2018-07-07T06:14:04.527Z,14140
2018-07-07T06:14:30.066Z,14624
2018-07-07T06:14:55.486Z,15076
2018-07-07T06:16:14.425Z,16128
2018-07-07T06:16:39.940Z,16128
2018-07-07T06:17:05.442Z,16000
2018-07-07T06:17:30.924Z,16032
2018-07-07T06:17:56.411Z,16320
2018-07-07T06:18:22.031Z,16608
2018-07-07T06:18:47.439Z,18144
2018-07-07T06:19:12.935Z,19456
2018-07-07T06:19:38.450Z,21408
2018-07-07T06:20:03.928Z,23936
2018-07-07T06:20:29.420Z,26976
2018-07-07T06:20:54.942Z,28192
2018-07-07T06:21:20.451Z,28320
2018-07-07T06:21:45.982Z,28512
2018-07-07T06:22:11.480Z,28384
2018-07-07T06:22:37.007Z,27744
2018-07-07T06:23:02.687Z,27872
2018-07-07T06:23:28.150Z,31296
2018-07-07T06:23:53.634Z,36288
2018-07-07T06:24:19.087Z,41504
2018-07-07T06:24:44.538Z,46144
2018-07-07T06:25:10.007Z,50752
2018-07-07T06:25:35.458Z,55744
2018-07-07T06:26:00.925Z,58208
2018-07-07T06:26:26.401Z,59264
2018-07-07T06:26:51.965Z,60672
2018-07-07T06:27:17.379Z,61376
2018-07-07T06:27:42.819Z,61408
2018-07-07T06:28:08.280Z,61536
2018-07-07T06:28:33.749Z,60160
2018-07-07T06:28:59.217Z,59424
2018-07-07T06:29:24.722Z,58080
2018-07-07T06:29:50.180Z,56160
2018-07-07T06:30:15.654Z,53792
2018-07-07T06:30:41.184Z,51456
2018-07-07T06:31:06.785Z,50752
2018-07-07T06:32:10.454Z,48128
2018-07-07T06:32:35.966Z,49376
2018-07-07T06:33:01.395Z,49376
2018-07-07T06:33:26.849Z,49760
2018-07-07T06:33:52.309Z,50272
2018-07-07T06:34:17.770Z,50816
2018-07-07T06:34:43.285Z,51104
2018-07-07T06:35:08.739Z,50752
2018-07-07T06:35:34.185Z,51936
2018-07-07T06:35:59.708Z,52320
2018-07-07T06:36:25.143Z,51456
2018-07-07T06:36:50.618Z,51136
2018-07-07T06:37:16.120Z,49280
2018-07-07T06:37:41.563Z,47424
2018-07-07T06:38:07.041Z,45056
2018-07-07T06:38:32.510Z,43616
2018-07-07T06:38:57.942Z,42080
2018-07-07T06:39:23.414Z,40576
2018-07-07T06:39:48.883Z,37696
2018-07-07T06:40:14.322Z,42528
2018-07-07T06:40:39.803Z,42208
2018-07-07T06:41:05.303Z,44448
2018-07-07T06:41:30.704Z,45632
2018-07-07T06:42:34.370Z,43840
2018-07-07T06:42:59.884Z,42880
2018-07-07T06:43:25.356Z,40416
2018-07-07T06:43:50.820Z,39968
2018-07-07T06:44:16.303Z,39424
2018-07-07T06:44:41.866Z,38240
2018-07-07T06:45:07.379Z,39200
2018-07-07T06:45:32.859Z,39712
2018-07-07T06:45:58.324Z,39648
2018-07-07T06:46:23.903Z,39008
2018-07-07T06:47:27.501Z,37568
2018-07-07T06:47:52.992Z,36672
2018-07-07T06:48:18.496Z,35520
2018-07-07T06:48:44.037Z,35040
2018-07-07T06:49:09.535Z,34304
2018-07-07T06:49:34.996Z,33088
2018-07-07T06:50:00.460Z,32672
2018-07-07T06:50:25.915Z,32192
2018-07-07T06:50:51.395Z,30944
2018-07-07T06:51:16.869Z,30784
2018-07-07T06:51:42.379Z,29664
2018-07-07T06:52:07.845Z,29184
2018-07-07T06:52:33.302Z,27840
2018-07-07T06:52:58.734Z,28224
2018-07-07T06:53:24.310Z,24960
2018-07-07T06:53:49.746Z,27040
2018-07-07T06:54:15.164Z,27104
2018-07-07T06:54:40.562Z,26976
2018-07-07T06:55:06.073Z,26528
2018-07-07T06:55:31.547Z,25248
2018-07-07T06:55:56.990Z,24512
2018-07-07T06:56:22.498Z,24960
2018-07-07T06:56:47.946Z,24800
2018-07-07T06:57:13.401Z,24800
2018-07-07T06:57:38.871Z,24480
2018-07-07T06:58:04.319Z,24064
2018-07-07T06:58:29.775Z,23328
2018-07-07T06:58:55.285Z,22240
2018-07-07T06:59:20.742Z,22176
2018-07-07T06:59:46.179Z,21792
2018-07-07T07:00:11.671Z,21760
2018-07-07T07:00:37.154Z,20832
2018-07-07T07:01:02.577Z,20032
2018-07-07T07:01:28.016Z,18816
2018-07-07T07:01:53.515Z,17376
2018-07-07T07:02:18.944Z,15792
2018-07-07T07:02:44.418Z,14332
2018-07-07T07:03:09.873Z,13068
2018-07-07T07:03:35.342Z,12352
2018-07-07T07:04:00.793Z,12116
2018-07-07T07:04:26.294Z,11752
2018-07-07T07:04:51.904Z,11408
2018-07-07T07:05:17.314Z,11404
2018-07-07T07:05:42.763Z,11116
2018-07-07T07:06:08.227Z,10616
2018-07-07T07:06:33.677Z,10432
2018-07-07T07:06:59.183Z,10312
2018-07-07T07:07:24.670Z,10136
2018-07-07T07:07:50.115Z,10024
2018-07-07T07:08:15.554Z,9844
2018-07-07T07:08:41.026Z,9632
2018-07-07T07:09:06.500Z,9440
2018-07-07T07:09:31.942Z,9436
2018-07-07T07:09:57.474Z,9376
2018-07-07T07:10:22.983Z,9316
2018-07-07T07:10:48.468Z,9324
2018-07-07T07:11:13.940Z,9272
2018-07-07T07:11:39.349Z,9180
2018-07-07T07:12:04.863Z,9352
2018-07-07T07:12:30.298Z,9324
2018-07-07T07:12:55.803Z,9372
2018-07-07T07:13:21.280Z,9616
2018-07-07T07:13:46.729Z,9416
2018-07-07T07:14:12.196Z,9316
2018-07-07T07:14:37.701Z,9492
2018-07-07T07:15:03.185Z,9144
2018-07-07T07:15:28.733Z,9212
2018-07-07T07:15:54.171Z,9508
2018-07-07T07:16:19.629Z,9392
2018-07-07T07:16:45.106Z,9328
2018-07-07T07:17:10.584Z,9292
2018-07-07T07:17:36.044Z,9380
2018-07-07T07:18:01.491Z,9332
2018-07-07T07:18:26.969Z,9504
2018-07-07T07:18:52.441Z,9172
2018-07-07T07:19:17.928Z,9564
2018-07-07T07:19:43.369Z,9576
2018-07-07T07:20:08.875Z,9620
2018-07-07T07:20:34.296Z,9688
2018-07-07T07:20:59.837Z,9560
2018-07-07T07:21:25.240Z,9504
2018-07-07T07:21:50.722Z,9740
2018-07-07T07:22:16.165Z,9740
2018-07-07T07:22:41.628Z,9592
2018-07-07T07:23:07.097Z,9560
2018-07-07T07:23:32.567Z,9472
2018-07-07T07:23:58.066Z,9640
2018-07-07T07:24:23.549Z,9640
2018-07-07T07:24:48.956Z,10108
2018-07-07T07:25:14.442Z,9872
2018-07-07T07:25:39.889Z,10428
2018-07-07T07:26:05.367Z,10464
2018-07-07T07:26:30.830Z,10596
2018-07-07T07:26:56.292Z,10720
2018-07-07T07:27:21.750Z,10504
2018-07-07T07:27:47.221Z,10640
2018-07-07T07:28:12.705Z,10224
2018-07-07T07:28:38.183Z,10316
2018-07-07T07:29:03.668Z,10712
2018-07-07T07:29:29.080Z,10700
2018-07-07T07:29:54.569Z,10616
2018-07-07T07:30:20.024Z,10768
2018-07-07T07:30:45.491Z,10704
2018-07-07T07:31:10.960Z,10676
2018-07-07T07:31:36.459Z,10476
2018-07-07T07:32:01.964Z,10768
2018-07-07T07:32:27.409Z,10756
2018-07-07T07:32:52.870Z,11016
2018-07-07T07:33:18.361Z,11160
2018-07-07T07:33:43.845Z,10588
2018-07-07T07:34:09.328Z,11288
2018-07-07T07:34:34.779Z,10944
2018-07-07T07:35:00.281Z,10496
2018-07-07T07:35:25.769Z,11092
2018-07-07T07:35:51.249Z,11432
2018-07-07T07:36:16.726Z,11228
2018-07-07T07:36:42.215Z,11224
2018-07-07T07:37:07.649Z,11708
2018-07-07T07:37:33.194Z,12740
2018-07-07T07:37:58.654Z,13452
2018-07-07T07:38:24.118Z,14788
2018-07-07T07:38:49.557Z,9592
2018-07-07T07:39:15.141Z,11628
2018-07-07T07:39:40.669Z,10852
2018-07-07T07:40:06.164Z,10140
2018-07-07T07:40:31.675Z,8464
2018-07-07T07:40:57.149Z,12492
2018-07-07T07:41:22.622Z,20992
2018-07-07T07:41:48.118Z,22272
2018-07-07T07:42:13.620Z,22720
2018-07-07T07:42:39.120Z,24128
2018-07-07T07:43:04.623Z,24096
2018-07-07T07:43:30.085Z,23840
2018-07-07T07:43:55.595Z,23008
2018-07-07T07:44:21.080Z,23584
2018-07-07T07:44:46.559Z,23552
2018-07-07T07:45:12.039Z,23648
2018-07-07T07:45:37.584Z,24256
2018-07-07T07:46:03.117Z,24288
2018-07-07T07:47:27.078Z,25088
2018-07-07T07:47:52.590Z,24736
2018-07-07T07:48:18.086Z,24608
2018-07-07T07:48:43.638Z,24864
2018-07-07T07:49:09.074Z,24800
2018-07-07T07:49:34.528Z,25152
2018-07-07T07:49:59.990Z,25728
2018-07-07T07:50:25.461Z,26752
2018-07-07T07:50:50.970Z,27936
2018-07-07T07:51:16.459Z,29024
2018-07-07T07:51:41.950Z,30304
2018-07-07T07:52:07.469Z,30976
2018-07-07T07:52:32.965Z,31232
2018-07-07T07:52:58.456Z,30752
2018-07-07T07:53:23.932Z,30496
2018-07-07T07:53:49.431Z,29664
2018-07-07T07:54:14.907Z,29056
2018-07-07T07:54:40.375Z,28480
2018-07-07T07:55:05.883Z,28192
2018-07-07T07:55:31.346Z,27616
2018-07-07T07:55:56.923Z,27360
2018-07-07T07:56:22.435Z,27168
2018-07-07T07:56:47.859Z,27104
2018-07-07T07:57:13.348Z,26784
2018-07-07T07:57:38.843Z,26656
2018-07-07T07:58:04.305Z,26432
2018-07-07T07:58:29.747Z,26496
2018-07-07T07:58:55.337Z,26304
2018-07-07T07:59:20.714Z,26240
2018-07-07T07:59:46.198Z,25088
2018-07-07T08:00:11.658Z,24128
2018-07-07T08:00:37.118Z,22368
2018-07-07T08:01:02.632Z,20896
2018-07-07T08:01:28.050Z,20320
2018-07-07T08:01:53.528Z,19040
2018-07-07T08:02:19.135Z,18528
2018-07-07T08:02:44.451Z,17984
2018-07-07T08:03:09.897Z,17472
2018-07-07T08:03:35.377Z,16928
2018-07-07T08:04:00.822Z,16512
2018-07-07T08:04:26.308Z,16348
2018-07-07T08:04:51.801Z,16136
2018-07-07T08:06:05.590Z,15824
2018-07-07T08:06:31.081Z,15688
2018-07-07T08:06:56.613Z,15488
2018-07-07T08:07:22.047Z,15408
2018-07-07T08:07:47.534Z,15568
2018-07-07T08:08:13.025Z,15724
2018-07-07T08:08:38.472Z,15864
2018-07-07T08:09:57.378Z,16536
2018-07-07T08:10:22.924Z,17248
2018-07-07T08:10:48.475Z,18464
2018-07-07T08:11:13.929Z,20448
2018-07-07T08:11:39.418Z,22208
2018-07-07T08:12:04.879Z,23776
2018-07-07T08:12:30.320Z,24992
2018-07-07T08:12:55.829Z,25376
2018-07-07T08:13:21.311Z,25504
2018-07-07T08:13:46.841Z,26144
2018-07-07T08:14:12.356Z,26336
2018-07-07T08:14:37.779Z,27264
2018-07-07T08:15:03.365Z,28096
2018-07-07T08:15:28.873Z,28576
2018-07-07T08:15:54.341Z,29280
2018-07-07T08:16:19.854Z,29280
2018-07-07T08:16:45.413Z,29440
2018-07-07T08:17:10.881Z,29184
2018-07-07T08:17:36.410Z,29248
2018-07-07T08:18:02.090Z,29344
2018-07-07T08:18:27.540Z,29888
2018-07-07T08:18:53.057Z,31072
2018-07-07T08:19:18.603Z,32128
2018-07-07T08:19:44.225Z,33408
2018-07-07T08:20:09.821Z,33952
2018-07-07T08:20:35.252Z,33728
2018-07-07T08:21:00.764Z,33248
2018-07-07T08:21:26.156Z,31808
2018-07-07T08:21:51.808Z,29248
2018-07-07T08:22:17.500Z,26432
2018-07-07T08:22:42.893Z,22784
2018-07-07T08:23:08.487Z,19008
2018-07-07T08:23:33.982Z,15812
2018-07-07T08:23:59.397Z,14080
2018-07-07T08:24:24.885Z,13352
2018-07-07T08:24:50.366Z,13084
2018-07-07T08:25:15.806Z,12848
2018-07-07T08:25:41.275Z,12744
2018-07-07T08:26:06.737Z,12672
2018-07-07T08:26:32.236Z,12552
2018-07-07T08:26:57.690Z,12604
2018-07-07T08:27:23.171Z,12632
2018-07-07T08:27:48.684Z,12612
2018-07-07T08:28:14.230Z,12592
2018-07-07T08:28:39.650Z,12588
2018-07-07T08:29:05.369Z,12688
2018-07-07T08:29:30.702Z,12672
2018-07-07T08:29:56.103Z,12636
2018-07-07T08:30:21.603Z,12520
2018-07-07T08:30:47.124Z,12524
2018-07-07T08:31:12.617Z,12504
2018-07-07T08:31:38.064Z,12412
2018-07-07T08:32:03.535Z,12304
2018-07-07T08:32:28.989Z,12240
2018-07-07T08:32:54.421Z,12096
2018-07-07T08:33:19.900Z,12012
2018-07-07T08:33:45.419Z,11908
2018-07-07T08:34:10.999Z,11848
2018-07-07T08:34:36.532Z,11684
2018-07-07T08:35:02.086Z,11612
2018-07-07T08:35:27.583Z,11540
2018-07-07T08:35:53.054Z,11472
2018-07-07T08:36:18.535Z,11448
2018-07-07T08:36:44.020Z,11376
2018-07-07T08:37:09.501Z,11288
2018-07-07T08:37:34.963Z,11140
2018-07-07T08:38:00.522Z,11040
2018-07-07T08:38:25.972Z,10988
2018-07-07T08:38:51.453Z,10948
2018-07-07T08:39:16.909Z,10748
2018-07-07T08:39:42.410Z,10612
2018-07-07T08:40:07.907Z,10576
2018-07-07T08:40:33.306Z,10384
2018-07-07T08:40:58.973Z,10148
2018-07-07T08:41:24.312Z,9960
2018-07-07T08:41:49.757Z,9592
2018-07-07T08:42:15.267Z,9244
2018-07-07T08:42:40.714Z,8956
2018-07-07T08:43:06.298Z,8564
2018-07-07T08:43:31.785Z,8164
2018-07-07T08:43:57.237Z,7824
2018-07-07T08:44:22.721Z,7480
2018-07-07T08:44:48.167Z,7140
2018-07-07T08:45:13.650Z,6888
2018-07-07T08:45:39.124Z,6732
2018-07-07T08:46:04.599Z,6656
2018-07-07T08:47:08.245Z,6424
2018-07-07T08:47:34.134Z,6212
2018-07-07T08:47:59.629Z,6060
2018-07-07T08:48:25.065Z,5948
2018-07-07T08:48:50.563Z,5844
2018-07-07T08:49:16.110Z,5804
2018-07-07T08:49:41.584Z,5720
2018-07-07T08:50:07.059Z,5680
2018-07-07T08:50:32.720Z,5708
2018-07-07T08:50:58.199Z,5796
2018-07-07T08:51:23.581Z,6036
2018-07-07T08:51:49.063Z,6408
2018-07-07T08:52:14.553Z,6768
2018-07-07T08:52:40.183Z,6740
2018-07-07T08:53:06.223Z,6648
2018-07-07T08:53:31.428Z,6540
2018-07-07T08:53:56.922Z,6316
2018-07-07T08:54:22.551Z,6036
2018-07-07T08:54:47.966Z,5620
2018-07-07T08:55:13.486Z,5104
2018-07-07T08:55:38.996Z,5048
2018-07-07T08:56:04.477Z,5100
2018-07-07T08:56:29.965Z,4640
2018-07-07T08:56:55.465Z,4680
2018-07-07T08:57:20.952Z,5380
2018-07-07T08:57:46.422Z,5512
2018-07-07T08:58:11.923Z,5600
2018-07-07T08:58:37.437Z,5676
2018-07-07T08:59:02.932Z,5632
2018-07-07T08:59:28.418Z,5584
2018-07-07T08:59:53.934Z,5668
2018-07-07T09:00:19.417Z,5648
2018-07-07T09:00:44.923Z,5528
2018-07-07T09:01:10.426Z,5504
2018-07-07T09:01:35.924Z,5428
2018-07-07T09:02:01.373Z,5436
2018-07-07T09:02:26.874Z,5272
2018-07-07T09:02:52.419Z,5176
2018-07-07T09:03:17.890Z,5116
2018-07-07T09:03:43.393Z,5104
2018-07-07T09:04:08.895Z,4892
2018-07-07T09:04:34.389Z,4828
2018-07-07T09:04:59.893Z,4840
2018-07-07T09:05:25.390Z,4932
2018-07-07T09:05:50.881Z,4876
2018-07-07T09:06:16.368Z,4944
2018-07-07T09:06:41.871Z,4940
2018-07-07T09:07:45.571Z,4612
2018-07-07T09:08:11.000Z,4640
2018-07-07T09:08:36.507Z,4412
2018-07-07T09:09:02.000Z,4580
2018-07-07T09:09:27.503Z,4508
2018-07-07T09:09:53.004Z,4608
2018-07-07T09:10:18.524Z,4544
2018-07-07T09:10:44.041Z,4648
2018-07-07T09:11:09.538Z,4592
2018-07-07T09:11:35.074Z,4480
2018-07-07T09:12:00.567Z,4432
2018-07-07T09:12:26.066Z,4296
2018-07-07T09:12:51.662Z,4312
2018-07-07T09:13:17.179Z,4324
2018-07-07T09:13:42.692Z,4324
2018-07-07T09:14:08.179Z,4300
2018-07-07T09:14:33.656Z,4308
2018-07-07T09:14:59.148Z,4316
2018-07-07T09:15:24.820Z,4288
2018-07-07T09:15:50.442Z,4352
2018-07-07T09:16:15.922Z,4292
2018-07-07T09:16:41.426Z,4292
2018-07-07T09:17:06.894Z,4216
2018-07-07T09:17:32.358Z,4248
2018-07-07T09:17:57.850Z,4196
2018-07-07T09:18:23.316Z,4236
2018-07-07T09:18:48.819Z,4224
2018-07-07T09:19:14.273Z,4320
2018-07-07T09:19:39.771Z,4260
2018-07-07T09:20:05.262Z,4328
2018-07-07T09:21:08.935Z,4788
2018-07-07T09:21:34.397Z,4604
2018-07-07T09:21:59.874Z,4384
2018-07-07T09:22:25.379Z,4256
2018-07-07T09:22:50.874Z,4124
2018-07-07T09:23:16.356Z,4192
2018-07-07T09:23:41.822Z,4076
2018-07-07T09:24:07.336Z,4076
2018-07-07T09:24:32.954Z,4016
2018-07-07T09:24:58.373Z,3992
2018-07-07T09:25:23.873Z,3976
2018-07-07T09:25:49.410Z,3952
2018-07-07T09:26:14.893Z,3908
2018-07-07T09:26:40.395Z,3896
2018-07-07T09:27:05.911Z,3876
2018-07-07T09:27:31.412Z,3828
2018-07-07T09:27:56.886Z,3820
2018-07-07T09:28:22.376Z,3812
2018-07-07T09:28:47.901Z,3780
2018-07-07T09:29:13.402Z,3780
2018-07-07T09:29:38.917Z,3744
2018-07-07T09:30:04.380Z,3776
2018-07-07T09:30:29.864Z,3800
2018-07-07T09:30:55.430Z,3788
2018-07-07T09:31:20.871Z,3760
2018-07-07T09:31:46.439Z,3760
2018-07-07T09:32:11.902Z,3740
2018-07-07T09:32:37.373Z,3656
2018-07-07T09:33:02.892Z,3632
2018-07-07T09:33:28.360Z,3624
2018-07-07T09:33:53.850Z,3620
2018-07-07T09:34:19.389Z,3616
2018-07-07T09:34:44.868Z,3640
2018-07-07T09:35:10.381Z,3632
2018-07-07T09:35:35.859Z,3604
2018-07-07T09:36:01.339Z,3556
2018-07-07T09:36:26.820Z,3572
2018-07-07T09:36:52.332Z,3580
2018-07-07T09:37:17.811Z,3592
2018-07-07T09:37:43.336Z,3584
2018-07-07T09:38:08.822Z,3520
2018-07-07T09:38:34.295Z,3508
2018-07-07T09:38:59.811Z,3544
2018-07-07T09:39:25.322Z,3492
2018-07-07T09:39:50.829Z,3488
2018-07-07T09:40:16.327Z,3508
2018-07-07T09:40:41.829Z,3508
2018-07-07T09:41:07.291Z,3516
2018-07-07T09:41:32.790Z,3524
2018-07-07T09:41:58.309Z,3504
2018-07-07T09:42:23.788Z,3512
2018-07-07T09:42:49.274Z,3488
2018-07-07T09:43:14.908Z,3480
2018-07-07T09:43:40.384Z,3480
2018-07-07T09:44:05.915Z,3488
2018-07-07T09:44:31.324Z,3476
2018-07-07T09:44:56.799Z,3460
2018-07-07T09:45:22.228Z,3460
2018-07-07T09:45:47.720Z,3424
2018-07-07T09:46:51.320Z,3456
2018-07-07T09:47:16.795Z,3448
2018-07-07T09:47:42.269Z,3432
2018-07-07T09:48:07.746Z,3444
2018-07-07T09:48:33.203Z,3452
2018-07-07T09:48:58.693Z,3460
2018-07-07T09:49:24.161Z,3444
2018-07-07T09:49:49.615Z,3456
2018-07-07T09:50:15.068Z,3472
2018-07-07T09:50:40.553Z,3428
2018-07-07T09:51:05.993Z,3432
2018-07-07T09:51:31.470Z,3436
2018-07-07T09:51:56.986Z,3444
2018-07-07T09:52:22.416Z,3448
2018-07-07T09:52:47.874Z,3428
2018-07-07T09:53:13.365Z,3400
2018-07-07T09:53:38.819Z,3404
2018-07-07T09:54:04.331Z,3452
2018-07-07T09:54:29.811Z,3428
2018-07-07T09:54:55.286Z,3416
2018-07-07T09:55:20.715Z,3400
2018-07-07T09:55:46.174Z,3400
2018-07-07T09:56:11.641Z,3396
2018-07-07T09:56:37.119Z,3416
2018-07-07T09:57:02.577Z,3464
2018-07-07T09:57:28.036Z,3416
2018-07-07T09:57:53.513Z,3408
2018-07-07T09:58:18.964Z,3424
2018-07-07T09:58:44.442Z,3436